Time;durP1;ratioP1;P1;durP2;ratioP2;P2;SDS_P1;SDS_P2;PMS_P1;PMS_P2;Temp;Humidity;BMP_temperature;BMP_pressure;BME280_temperature;BME280_humidity;BME280_pressure;Samples;Min_cycle;Max_cycle;Signal;HPM_P1;HPM_P2
2024/01/16 00:01:44;;;;;;;34.70;18.48;;;;;;;28.14;71.40;100982.84;5049776;28;66137;-39
2024/01/16 00:04:15;;;;;;;43.30;18.67;;;;;;;28.59;71.18;101054.28;5053475;28;69675;-39
2024/01/16 00:06:45;;;;;;;40.97;20.17;;;;;;;28.65;71.28;101060.75;5035681;28;65968;-38
2024/01/16 00:09:17;;;;;;;36.33;18.37;;;;;;;28.68;72.08;101065.75;5050088;28;70150;-38
2024/01/16 00:11:47;;;;;;;31.42;18.92;;;;;;;28.74;71.99;101078.44;5056417;28;66523;-41
2024/01/16 00:14:18;;;;;;;37.20;19.77;;;;;;;28.73;72.00;101079.47;5055204;28;70086;-40
2024/01/16 00:16:48;;;;;;;34.08;18.88;;;;;;;28.77;72.87;101078.03;5035527;28;65702;-38
2024/01/16 00:19:19;;;;;;;44.65;21.48;;;;;;;28.72;72.13;101072.41;5056813;28;70107;-39
2024/01/16 00:21:51;;;;;;;53.92;21.02;;;;;;;28.82;71.72;101099.03;5038305;28;65777;-39
2024/01/16 00:24:23;;;;;;;42.42;21.75;;;;;;;28.71;71.11;101086.94;5034915;28;69545;-38
2024/01/16 00:26:53;;;;;;;39.65;22.10;;;;;;;28.77;71.27;101099.63;5038803;28;65874;-38
2024/01/16 00:29:25;;;;;;;48.50;21.45;;;;;;;28.82;71.27;101105.25;5040584;28;70187;-38
2024/01/16 00:31:55;;;;;;;41.27;21.53;;;;;;;28.71;71.58;101092.34;5047664;28;64865;-41
2024/01/16 00:34:26;;;;;;;52.45;23.15;;;;;;;28.89;71.45;101116.94;5052670;28;70495;-39
2024/01/16 00:36:56;;;;;;;37.30;22.25;;;;;;;28.88;71.11;101111.72;5019137;28;66197;-39
2024/01/16 00:39:27;;;;;;;37.17;21.15;;;;;;;28.89;70.14;101114.25;5035828;28;71143;-40
2024/01/16 00:41:57;;;;;;;32.65;19.42;;;;;;;28.93;72.86;101114.66;5043216;28;65807;-39
2024/01/16 00:44:28;;;;;;;32.80;19.25;;;;;;;28.80;72.77;101095.69;5036760;28;71610;-39
2024/01/16 00:47:01;;;;;;;30.48;18.92;;;;;;;29.01;73.11;101121.75;5053732;28;66218;-39
2024/01/16 00:49:32;;;;;;;37.42;18.95;;;;;;;29.05;72.93;101128.44;5040092;28;70165;-39
2024/01/16 00:52:02;;;;;;;35.20;18.70;;;;;;;29.09;72.65;101132.41;5040057;28;66155;-40
2024/01/16 00:54:33;;;;;;;23.70;17.48;;;;;;;29.02;68.63;101120.72;5040028;28;70067;-39
2024/01/16 00:57:04;;;;;;;21.38;15.77;;;;;;;29.05;67.87;101120.34;5033639;28;67246;-39
2024/01/16 00:59:35;;;;;;;19.02;15.63;;;;;;;29.03;68.02;101115.16;5034325;28;70273;-39
2024/01/16 01:02:05;;;;;;;23.35;15.23;;;;;;;29.12;67.94;101129.31;5046235;28;66146;-39
2024/01/16 01:04:36;;;;;;;22.90;14.43;;;;;;;29.10;67.97;101124.09;5043013;28;70299;-39
2024/01/16 01:07:06;;;;;;;18.13;15.30;;;;;;;29.08;67.42;101120.75;5044395;28;65816;-39
2024/01/16 01:09:37;;;;;;;18.23;14.10;;;;;;;29.22;67.79;101151.34;5048024;28;70392;-38
2024/01/16 01:12:07;;;;;;;17.30;14.13;;;;;;;29.23;67.14;101150.34;5033359;28;66762;-39
2024/01/16 01:14:38;;;;;;;21.60;15.27;;;;;;;29.25;67.03;101142.84;5056670;28;70328;-40
2024/01/16 01:17:08;;;;;;;21.20;14.82;;;;;;;29.27;67.45;101148.88;5058833;28;66759;-39
2024/01/16 01:19:39;;;;;;;17.92;15.18;;;;;;;29.29;67.33;101152.22;5034550;28;69585;-39
2024/01/16 01:22:09;;;;;;;22.65;14.48;;;;;;;29.30;67.47;101151.16;5055178;28;65809;-40
2024/01/16 01:24:41;;;;;;;15.05;13.55;;;;;;;29.30;67.44;101153.88;5046775;28;70282;-40
2024/01/16 01:27:11;;;;;;;22.15;14.10;;;;;;;29.31;66.75;101158.25;5057725;28;65988;-38
2024/01/16 01:29:42;;;;;;;19.48;14.27;;;;;;;29.33;66.85;101161.56;5055907;28;69818;-39
2024/01/16 01:32:12;;;;;;;16.50;13.93;;;;;;;29.36;67.00;101163.03;5058539;28;66695;-39
2024/01/16 01:34:43;;;;;;;17.65;14.68;;;;;;;29.38;67.22;101164.50;5038375;28;71055;-38
2024/01/16 01:37:14;;;;;;;15.25;13.65;;;;;;;29.39;66.75;101166.19;5036446;28;66417;-38
2024/01/16 01:39:45;;;;;;;15.35;13.80;;;;;;;29.37;67.03;101162.84;5037942;28;70192;-40
2024/01/16 01:42:16;;;;;;;17.13;14.15;;;;;;;29.42;66.57;101174.91;5038383;28;67106;-40
2024/01/16 01:44:47;;;;;;;16.00;14.38;;;;;;;29.39;67.21;101163.50;5036688;28;70780;-40
2024/01/16 01:47:17;;;;;;;22.40;14.02;;;;;;;29.44;66.83;101164.72;5038483;28;66960;-39
2024/01/16 01:49:49;;;;;;;16.23;14.27;;;;;;;29.45;66.52;101163.69;5057166;28;70356;-39
2024/01/16 01:52:19;;;;;;;15.15;13.60;;;;;;;29.44;66.45;101167.44;5039179;28;66626;-38
2024/01/16 01:54:51;;;;;;;16.88;13.93;;;;;;;29.07;66.52;101102.91;5037637;28;70276;-39
2024/01/16 01:57:22;;;;;;;15.23;13.82;;;;;;;29.45;67.15;101163.69;5056841;28;66294;-37
2024/01/16 01:59:53;;;;;;;15.75;13.88;;;;;;;29.48;66.73;101171.41;5058186;28;71331;-39
2024/01/16 02:02:28;;;;;;;18.02;14.70;;;;;;;29.44;66.80;101156.63;5061963;28;66587;-39
2024/01/16 02:04:58;;;;;;;17.48;14.88;;;;;;;29.46;66.85;101166.19;5034152;28;70659;-40
2024/01/16 02:07:29;;;;;;;16.95;14.93;;;;;;;29.49;66.88;101162.25;5065995;28;66501;-39
2024/01/16 02:10:00;;;;;;;19.35;14.65;;;;;;;29.55;66.34;101174.94;5055242;28;70254;-43
2024/01/16 02:12:31;;;;;;;16.02;14.32;;;;;;;29.56;66.96;101168.50;5046759;28;66190;-40
2024/01/16 02:15:03;;;;;;;15.13;13.63;;;;;;;29.57;66.82;101172.88;5055206;28;70414;-39
2024/01/16 02:17:33;;;;;;;15.38;13.63;;;;;;;29.56;66.89;101171.19;5040359;28;65972;-44
2024/01/16 02:20:05;;;;;;;14.38;12.95;;;;;;;29.59;66.29;101168.09;5013959;28;69957;-39
2024/01/16 02:22:38;;;;;;;15.35;12.98;;;;;;;29.53;66.53;101160.78;5055348;28;66424;-38
2024/01/16 02:25:09;;;;;;;17.38;14.15;;;;;;;29.64;66.62;101178.31;5043740;28;69906;-39
2024/01/16 02:27:39;;;;;;;17.67;13.93;;;;;;;29.64;66.35;101171.03;5061305;28;66766;-39
2024/01/16 02:30:10;;;;;;;17.13;14.23;;;;;;;29.67;66.19;101172.50;5049948;28;70398;-40
2024/01/16 02:32:40;;;;;;;16.00;13.57;;;;;;;29.67;66.65;101178.75;5049283;28;65738;-39
2024/01/16 02:35:11;;;;;;;19.38;13.40;;;;;;;29.69;66.25;101165.84;5045551;28;70091;-40
2024/01/16 02:37:42;;;;;;;20.38;14.45;;;;;;;29.57;66.65;101140.44;5043640;28;66585;-39
2024/01/16 02:40:13;;;;;;;15.85;14.05;;;;;;;29.71;66.75;101157.56;5038896;28;69893;-39
2024/01/16 02:42:43;;;;;;;16.15;14.20;;;;;;;29.70;66.32;101159.44;5024477;28;66434;-39
2024/01/16 02:45:14;;;;;;;17.75;13.73;;;;;;;29.70;66.79;101150.47;5034956;28;69695;-39
2024/01/16 02:47:45;;;;;;;16.63;13.23;;;;;;;29.77;66.74;101159.44;5042251;28;66614;-39
2024/01/16 02:50:16;;;;;;;16.90;13.40;;;;;;;29.77;66.67;101162.13;5032821;28;69620;-38
2024/01/16 02:52:46;;;;;;;17.65;14.02;;;;;;;29.80;66.37;101161.72;5036518;28;65869;-38
2024/01/16 02:55:17;;;;;;;16.63;14.00;;;;;;;29.75;66.71;101154.22;5032163;28;69473;-38
2024/01/16 02:57:47;;;;;;;15.65;13.48;;;;;;;29.80;66.55;101149.03;5037967;28;66348;-38
2024/01/16 03:00:18;;;;;;;17.75;13.43;;;;;;;29.76;66.25;101142.38;5034095;28;70693;-39
2024/01/16 03:02:48;;;;;;;17.75;13.75;;;;;;;29.83;66.16;101154.00;5053240;28;65539;-39
2024/01/16 03:05:19;;;;;;;15.10;13.23;;;;;;;29.82;66.50;101154.22;5040316;28;70466;-39
2024/01/16 03:07:50;;;;;;;14.73;13.30;;;;;;;29.89;66.16;101152.34;5034759;28;66254;-41
2024/01/16 03:10:20;;;;;;;15.38;13.85;;;;;;;29.92;66.06;101154.66;5034759;28;70463;-38
2024/01/16 03:12:51;;;;;;;14.80;12.98;;;;;;;29.95;66.36;101162.38;5041042;28;66142;-38
2024/01/16 03:15:22;;;;;;;15.80;13.07;;;;;;;29.95;65.99;101147.97;5035119;28;71328;-38
2024/01/16 03:17:53;;;;;;;13.82;12.50;;;;;;;29.98;65.92;101158.41;5037602;28;66941;-39
2024/01/16 03:20:28;;;;;;;13.55;12.23;;;;;;;30.00;65.96;101153.59;5056720;28;44419;-39
2024/01/16 03:22:58;;;;;;;13.85;11.98;;;;;;;30.00;66.49;101145.50;5034778;28;67531;-40
2024/01/16 03:25:30;;;;;;;15.82;12.77;;;;;;;30.02;66.12;101143.41;5039672;28;70528;-39
2024/01/16 03:28:01;;;;;;;13.95;12.52;;;;;;;29.97;66.17;101118.88;5034060;28;66270;-40
2024/01/16 03:30:31;;;;;;;19.85;13.45;;;;;;;29.86;66.01;101097.84;5038253;28;69973;-39
2024/01/16 03:33:03;;;;;;;15.73;13.70;;;;;;;30.06;66.09;101125.72;5041194;28;66526;-42
2024/01/16 03:35:34;;;;;;;16.45;12.98;;;;;;;30.10;65.86;101135.09;5035644;28;70406;-39
2024/01/16 03:38:04;;;;;;;13.82;12.55;;;;;;;30.09;66.24;101119.91;5039293;28;66407;-38
2024/01/16 03:40:35;;;;;;;13.52;12.30;;;;;;;30.16;66.15;101128.00;5057594;28;71082;-38
2024/01/16 03:43:07;;;;;;;13.55;12.43;;;;;;;30.18;66.17;101132.19;5059447;28;65518;-40
2024/01/16 03:45:37;;;;;;;14.17;12.77;;;;;;;30.19;66.25;101131.13;5045642;28;70273;-39
2024/01/16 03:48:08;;;;;;;15.82;12.90;;;;;;;30.22;65.59;101128.03;5061127;28;66291;-39
2024/01/16 03:50:43;;;;;;;14.05;12.65;;;;;;;30.24;65.82;101125.13;5059985;28;70737;-38
2024/01/16 03:53:14;;;;;;;15.23;13.07;;;;;;;30.26;65.58;101123.88;5044746;28;66297;-39
2024/01/16 03:55:45;;;;;;;16.63;13.98;;;;;;;30.30;65.83;101118.03;5040349;28;69345;-39
2024/01/16 03:58:15;;;;;;;13.85;12.55;;;;;;;30.32;65.40;101122.19;5042068;28;65660;-38
2024/01/16 04:00:47;;;;;;;14.35;12.88;;;;;;;30.32;65.98;101115.97;5035649;28;69666;-39
2024/01/16 04:03:18;;;;;;;17.70;12.88;;;;;;;30.33;65.53;101104.06;5024153;28;65387;-38
2024/01/16 04:05:48;;;;;;;15.65;12.70;;;;;;;30.38;65.42;101098.88;5028397;28;69589;-39
2024/01/16 04:08:19;;;;;;;14.05;12.55;;;;;;;30.40;65.56;101091.38;5041185;28;66176;-38
2024/01/16 04:10:49;;;;;;;14.05;12.65;;;;;;;30.43;65.63;101090.94;5042169;28;70431;-40
2024/01/16 04:13:20;;;;;;;14.43;11.98;;;;;;;30.45;65.85;101088.84;5043396;28;65803;-39
2024/01/16 04:15:51;;;;;;;14.23;12.60;;;;;;;30.47;65.36;101084.88;5048435;28;70213;-39
2024/01/16 04:18:21;;;;;;;17.73;14.32;;;;;;;30.50;65.85;101086.34;5058230;28;65675;-39
2024/01/16 04:20:52;;;;;;;15.10;12.50;;;;;;;30.51;65.83;101077.19;5035451;28;69445;-41
2024/01/16 04:23:22;;;;;;;16.40;11.73;;;;;;;30.53;65.38;101066.94;5039919;28;66753;-40
2024/01/16 04:25:54;;;;;;;14.52;12.70;;;;;;;30.53;65.62;101064.25;5024771;28;70430;-40
2024/01/16 04:28:24;;;;;;;13.90;12.57;;;;;;;30.50;65.66;101049.25;5039947;28;66592;-39
2024/01/16 04:30:55;;;;;;;19.42;13.13;;;;;;;30.54;65.16;101046.97;5042063;28;69076;-39
2024/01/16 04:33:26;;;;;;;14.77;12.00;;;;;;;30.60;65.15;101048.81;5043855;28;65486;-38
2024/01/16 04:35:57;;;;;;;13.10;11.80;;;;;;;30.63;65.24;101048.38;5019626;28;69876;-38
2024/01/16 04:38:27;;;;;;;14.23;12.35;;;;;;;30.64;65.28;101041.09;5040576;28;67297;-38
2024/01/16 04:41:01;;;;;;;14.07;12.70;;;;;;;30.58;65.63;101017.59;5047033;28;69615;-39
2024/01/16 04:43:31;;;;;;;13.90;12.52;;;;;;;30.68;65.32;101023.38;5051012;28;65172;-39
2024/01/16 04:46:02;;;;;;;13.90;12.23;;;;;;;30.71;65.04;101022.94;5058252;28;69687;-39
2024/01/16 04:48:33;;;;;;;14.93;11.90;;;;;;;30.72;65.72;101020.00;5060538;28;66604;-40
2024/01/16 04:51:04;;;;;;;13.55;12.15;;;;;;;30.75;65.53;101018.75;5039313;28;69940;-39
2024/01/16 04:53:34;;;;;;;12.63;11.63;;;;;;;30.77;65.20;101010.44;5040704;28;65686;-39
2024/01/16 04:56:05;;;;;;;12.75;11.45;;;;;;;30.80;65.05;101004.59;5011040;28;70089;-40
2024/01/16 04:58:36;;;;;;;15.52;11.85;;;;;;;30.80;65.18;100997.31;5037956;28;64983;-39
2024/01/16 05:01:06;;;;;;;13.00;11.73;;;;;;;30.81;65.28;100984.59;5049885;28;70127;-40
2024/01/16 05:03:37;;;;;;;15.10;12.35;;;;;;;30.86;64.90;100988.31;5059425;28;65762;-39
2024/01/16 05:06:15;;;;;;;13.45;12.23;;;;;;;30.86;65.01;100988.31;5047987;28;70786;-40
2024/01/16 05:08:45;;;;;;;15.48;12.07;;;;;;;30.86;65.42;100971.22;5048037;28;65146;-39
2024/01/16 05:11:16;;;;;;;14.02;12.55;;;;;;;30.91;64.84;100984.94;5054462;28;70545;-39
2024/01/16 05:13:46;;;;;;;13.93;12.00;;;;;;;30.95;65.16;100980.75;5059376;28;66163;-39
2024/01/16 05:16:17;;;;;;;14.35;12.82;;;;;;;30.94;65.01;100985.34;5059631;28;70175;-39
2024/01/16 05:18:48;;;;;;;13.77;12.30;;;;;;;30.99;64.87;100983.88;5048682;28;66485;-39
2024/01/16 05:21:19;;;;;;;12.87;11.50;;;;;;;30.98;64.80;100974.91;5037214;28;69760;-39
2024/01/16 05:23:50;;;;;;;12.95;11.65;;;;;;;31.01;64.71;100974.47;5027486;28;66521;-38
2024/01/16 05:26:22;;;;;;;16.00;12.35;;;;;;;30.95;65.01;100959.06;5025341;28;70488;-39
2024/01/16 05:28:52;;;;;;;13.63;11.73;;;;;;;31.02;65.00;100965.28;5039121;28;65937;-39
2024/01/16 05:31:23;;;;;;;12.77;11.55;;;;;;;30.95;64.72;100942.81;5041335;28;70140;-39
2024/01/16 05:33:53;;;;;;;12.95;11.82;;;;;;;31.08;64.83;100948.16;5039477;28;66526;-38
2024/01/16 05:36:24;;;;;;;13.23;11.85;;;;;;;31.11;64.78;100950.41;5038876;28;71365;-39
2024/01/16 05:38:55;;;;;;;14.93;12.60;;;;;;;31.11;64.83;100942.28;5018952;28;65592;-39
2024/01/16 05:41:26;;;;;;;14.50;11.80;;;;;;;31.16;64.86;100928.09;5063790;27;70724;-39
2024/01/16 05:43:59;;;;;;;14.43;11.63;;;;;;;30.77;64.78;100864.19;5055136;28;66197;-40
2024/01/16 05:46:30;;;;;;;11.63;10.63;;;;;;;31.23;64.75;100931.59;5050105;28;70643;-39
2024/01/16 05:49:01;;;;;;;;;;;;;;;31.00;64.91;100915.91;5035701;28;66717;-39
2024/01/16 05:51:31;;;;;;;12.45;11.35;;;;;;;31.21;64.28;100908.47;5039421;28;69898;-39
2024/01/16 05:54:03;;;;;;;14.32;11.10;;;;;;;31.25;64.19;100898.81;5044158;28;66407;-39
2024/01/16 05:56:34;;;;;;;13.35;12.05;;;;;;;31.29;64.40;100894.63;5047430;28;70521;-39
2024/01/16 05:59:04;;;;;;;12.27;11.13;;;;;;;31.30;64.46;100897.09;5060153;28;65859;-40
2024/01/16 06:01:35;;;;;;;12.43;11.20;;;;;;;31.36;64.62;100895.41;5075710;28;69818;-40
2024/01/16 06:04:06;;;;;;;12.20;10.55;;;;;;;31.21;64.14;100859.69;5063524;28;65820;-39
2024/01/16 06:06:44;;;;;;;12.93;11.48;;;;;;;31.41;64.20;100878.50;5061250;28;69334;-39
2024/01/16 06:09:15;;;;;;;11.70;10.70;;;;;;;31.42;64.10;100878.25;5060291;28;66389;-39
2024/01/16 06:11:47;;;;;;;11.85;10.95;;;;;;;31.42;64.19;100878.25;5063012;28;70480;-44
2024/01/16 06:14:21;;;;;;;12.15;11.00;;;;;;;31.44;64.04;100870.72;5041973;28;66297;-39
2024/01/16 06:16:52;;;;;;;12.30;11.13;;;;;;;31.44;64.06;100864.47;5047963;28;69817;-39
2024/01/16 06:19:22;;;;;;;12.73;11.52;;;;;;;31.49;64.29;100862.75;5061816;28;66687;-39
2024/01/16 06:21:53;;;;;;;13.00;11.60;;;;;;;31.51;63.92;100860.66;5049834;28;71006;-39
2024/01/16 06:24:23;;;;;;;12.77;11.48;;;;;;;31.52;64.12;100859.59;5056881;28;66879;-39
2024/01/16 06:26:55;;;;;;;12.52;11.32;;;;;;;31.52;63.92;100854.16;5038101;28;69358;-39
2024/01/16 06:29:26;;;;;;;11.43;10.47;;;;;;;31.53;64.05;100850.38;5060009;28;66514;-39
2024/01/16 06:32:04;;;;;;;12.07;10.98;;;;;;;31.56;63.69;100841.81;5062401;28;69392;-38
2024/01/16 06:34:34;;;;;;;11.52;10.57;;;;;;;31.56;63.83;100844.50;5061895;28;65073;-39
2024/01/16 06:37:05;;;;;;;12.27;11.00;;;;;;;31.58;63.79;100839.69;5059747;28;69129;-39
2024/01/16 06:39:37;;;;;;;11.80;10.77;;;;;;;31.62;64.02;100845.50;5061388;28;66577;-39
2024/01/16 06:42:08;;;;;;;12.27;11.18;;;;;;;31.63;63.44;100846.34;5060789;28;69900;-39
2024/01/16 06:44:39;;;;;;;;;;;;;;;31.41;63.56;100837.81;5055000;28;66786;-39
2024/01/16 06:47:10;;;;;;;11.85;10.73;;;;;;;31.63;63.91;100835.50;5027618;28;69982;-39
2024/01/16 06:49:40;;;;;;;13.20;12.07;;;;;;;31.66;63.33;100826.91;5042093;28;66480;-39
2024/01/16 06:52:11;;;;;;;14.07;11.95;;;;;;;31.67;63.71;100820.41;5056596;28;70171;-39
2024/01/16 06:54:41;;;;;;;13.13;12.13;;;;;;;31.65;63.90;100806.25;5044429;28;66537;-39
2024/01/16 06:57:12;;;;;;;12.60;11.50;;;;;;;31.70;63.60;100814.53;5043416;28;69211;-40
2024/01/16 06:59:42;;;;;;;12.63;11.45;;;;;;;31.73;63.58;100819.50;5043421;28;65852;-40
2024/01/16 07:02:13;;;;;;;12.77;11.48;;;;;;;31.69;63.38;100808.28;5058670;28;70322;-40
2024/01/16 07:04:44;;;;;;;12.18;11.05;;;;;;;31.65;63.30;100795.41;5055842;28;66035;-39
2024/01/16 07:07:14;;;;;;;12.30;11.23;;;;;;;31.77;63.68;100804.44;5043025;28;70349;-39
2024/01/16 07:09:46;;;;;;;12.73;11.52;;;;;;;31.78;63.15;100800.66;5048176;28;66241;-40
2024/01/16 07:12:16;;;;;;;12.23;11.03;;;;;;;31.77;63.74;100794.41;5064408;28;70070;-40
2024/01/16 07:14:47;;;;;;;12.98;11.75;;;;;;;31.72;63.48;100774.47;5053531;28;65781;-40
2024/01/16 07:17:17;;;;;;;14.00;11.20;;;;;;;31.78;63.34;100787.09;5041961;28;70519;-39
2024/01/16 07:19:48;;;;;;;12.10;10.98;;;;;;;31.81;63.36;100789.34;5031660;28;65441;-39
2024/01/16 07:22:18;;;;;;;13.27;11.98;;;;;;;31.85;63.20;100785.16;5035662;28;70177;-39
2024/01/16 07:24:48;;;;;;;12.43;11.27;;;;;;;31.86;63.27;100778.66;5043118;28;66204;-39
2024/01/16 07:27:19;;;;;;;12.73;11.52;;;;;;;31.86;63.03;100775.94;5035800;28;68909;-40
2024/01/16 07:29:50;;;;;;;13.20;11.95;;;;;;;31.82;63.53;100770.16;5042920;28;66225;-39
2024/01/16 07:32:20;;;;;;;13.55;11.98;;;;;;;31.92;63.22;100776.94;5045553;28;69552;-39
2024/01/16 07:34:52;;;;;;;12.75;11.65;;;;;;;31.82;63.17;100758.47;5048177;28;66270;-39
2024/01/16 07:37:22;;;;;;;;;;;;;;;31.72;63.24;100769.03;5045619;28;70074;-39
2024/01/16 07:39:53;;;;;;;14.38;11.93;;;;;;;31.91;63.25;100759.84;5045228;28;65842;-39
2024/01/16 07:42:23;;;;;;;13.00;11.82;;;;;;;31.96;63.18;100770.84;5044073;28;70365;-37
2024/01/16 07:44:55;;;;;;;11.98;10.98;;;;;;;31.72;63.23;100731.06;5042164;28;65939;-39
2024/01/16 07:47:25;;;;;;;12.10;10.95;;;;;;;32.01;63.17;100770.97;5055150;28;70438;-39
2024/01/16 07:49:56;;;;;;;13.10;11.98;;;;;;;31.90;63.16;100752.75;5049910;28;65873;-38
2024/01/16 07:52:28;;;;;;;12.85;11.77;;;;;;;32.04;63.08;100777.81;5043720;28;70112;-40
2024/01/16 07:54:59;;;;;;;13.63;11.98;;;;;;;32.07;63.03;100777.34;5040943;28;66003;-38
2024/01/16 07:57:29;;;;;;;14.77;11.65;;;;;;;32.10;63.04;100773.38;5056902;28;70302;-39
2024/01/16 07:59:59;;;;;;;12.82;11.68;;;;;;;32.12;63.06;100768.50;5042112;28;65948;-39
2024/01/16 08:02:37;;;;;;;13.52;12.32;;;;;;;32.12;63.13;100763.91;5027550;28;69996;-39
2024/01/16 08:05:08;;;;;;;16.13;11.88;;;;;;;32.11;63.25;100766.88;5042330;28;65434;-40
2024/01/16 08:07:39;;;;;;;12.70;11.65;;;;;;;32.04;62.90;100754.22;5061351;28;69931;-39
2024/01/16 08:10:09;;;;;;;13.10;11.85;;;;;;;32.20;62.84;100768.19;5057140;28;65273;-38
2024/01/16 08:12:40;;;;;;;17.70;11.83;;;;;;;32.20;62.84;100768.19;5075832;28;69278;-40
2024/01/16 08:15:10;;;;;;;12.48;11.43;;;;;;;32.23;62.77;100770.44;5061188;28;66838;-40
2024/01/16 08:17:41;;;;;;;13.75;12.45;;;;;;;32.23;62.68;100757.72;5037642;28;69208;-39
2024/01/16 08:20:12;;;;;;;13.43;11.98;;;;;;;32.23;62.71;100757.72;5040775;28;66393;-40
2024/01/16 08:22:43;;;;;;;12.67;11.53;;;;;;;32.26;62.84;100759.94;5024620;28;69795;-39
2024/01/16 08:25:14;;;;;;;12.90;11.75;;;;;;;32.29;62.70;100758.66;5037204;28;67244;-40
2024/01/16 08:27:44;;;;;;;13.73;12.00;;;;;;;32.32;62.68;100763.63;5047854;28;70494;-39
2024/01/16 08:30:15;;;;;;;13.95;12.45;;;;;;;32.35;62.36;100765.88;5041303;28;66079;-39
2024/01/16 08:32:46;;;;;;;14.07;12.75;;;;;;;32.35;62.80;100765.03;5044376;28;69721;-39
2024/01/16 08:35:17;;;;;;;13.43;12.20;;;;;;;32.34;62.82;100761.47;5050532;28;65264;-39
2024/01/16 08:37:49;;;;;;;13.77;12.48;;;;;;;32.38;62.82;100768.13;5057306;28;70154;-39
2024/01/16 08:40:19;;;;;;;;;;;;;;;32.19;62.62;100763.81;5040195;28;66540;-39
2024/01/16 08:42:54;;;;;;;17.75;13.65;;;;;;;32.39;62.60;100763.50;5039800;28;70209;-38
2024/01/16 08:45:26;;;;;;;14.52;13.00;;;;;;;32.41;62.75;100764.94;5054696;28;66493;-40
2024/01/16 08:47:58;;;;;;;17.23;13.88;;;;;;;32.41;62.90;100767.66;5035490;28;70470;-39
2024/01/16 08:50:28;;;;;;;;;;;;;;;32.27;62.55;100766.19;5049085;28;66203;-41
2024/01/16 08:52:59;;;;;;;14.18;12.88;;;;;;;32.46;62.61;100769.69;5023216;28;69640;-39
2024/01/16 08:55:30;;;;;;;14.75;13.43;;;;;;;32.45;62.32;100768.00;5035637;28;65426;-39
2024/01/16 08:58:00;;;;;;;15.73;14.43;;;;;;;32.51;62.47;100774.41;5030657;28;69859;-39
2024/01/16 09:00:31;;;;;;;16.92;14.13;;;;;;;32.54;62.31;100771.22;5040123;28;65397;-39
2024/01/16 09:03:02;;;;;;;15.93;14.45;;;;;;;32.55;62.25;100783.75;5052289;28;70880;-39
2024/01/16 09:05:36;;;;;;;;;;;;;;;32.37;62.46;100788.16;5054475;28;66017;-38
2024/01/16 09:08:07;;;;;;;15.88;14.35;;;;;;;32.55;62.58;100790.00;5042126;28;69737;-38
2024/01/16 09:10:41;;;;;;;16.45;14.73;;;;;;;32.58;62.52;100788.72;5048013;28;66289;-39
2024/01/16 09:13:12;;;;;;;18.90;15.00;;;;;;;32.54;62.51;100792.94;5048757;28;69769;-40
2024/01/16 09:15:43;;;;;;;16.67;15.10;;;;;;;32.52;62.39;100784.22;5047379;28;67612;-38
2024/01/16 09:18:13;;;;;;;19.05;15.63;;;;;;;32.49;62.44;100774.66;5034467;28;70216;-40
2024/01/16 09:20:45;;;;;;;17.48;15.45;;;;;;;32.62;62.31;100789.88;5060343;28;65954;-41
2024/01/16 09:23:15;;;;;;;22.02;16.83;;;;;;;32.52;63.82;100800.53;5052202;28;70282;-41
2024/01/16 09:25:46;;;;;;;19.42;17.27;;;;;;;32.38;65.15;100808.84;5045687;28;65499;-41
2024/01/16 09:28:18;;;;;;;25.88;18.65;;;;;;;32.36;65.22;100808.22;5047866;28;69671;-39
2024/01/16 09:30:49;;;;;;;27.25;18.85;;;;;;;32.28;66.34;100808.56;5047936;28;66298;-40
2024/01/16 09:33:19;;;;;;;24.90;19.33;;;;;;;32.22;66.57;100823.88;5048260;28;69760;-41
2024/01/16 09:35:50;;;;;;;30.33;17.97;;;;;;;32.19;66.84;100835.22;5061662;28;65997;-44
2024/01/16 09:38:21;;;;;;;25.42;18.05;;;;;;;32.15;67.48;100833.16;5049788;28;69486;-42
2024/01/16 09:40:56;;;;;;;18.07;16.20;;;;;;;31.79;67.54;100780.66;5052637;28;65218;-43
2024/01/16 09:43:32;;;;;;;21.40;17.52;;;;;;;31.75;68.28;100779.44;5059427;28;70618;-42
2024/01/16 09:46:06;;;;;;;20.83;16.73;;;;;;;32.08;68.44;100854.16;5045006;28;66346;-41
2024/01/16 09:48:36;;;;;;;20.92;15.48;;;;;;;32.12;68.48;100852.63;5056177;28;70187;-41
2024/01/16 09:51:07;;;;;;;20.73;15.83;;;;;;;32.03;68.74;100852.13;5043786;28;65906;-40
2024/01/16 09:53:38;;;;;;;20.73;14.90;;;;;;;32.10;68.69;100862.91;5041115;28;68662;-42
2024/01/16 09:56:16;;;;;;;21.05;14.73;;;;;;;31.63;68.95;100790.22;5032262;28;65799;-41
2024/01/16 09:58:50;;;;;;;23.00;14.73;;;;;;;32.07;68.90;100860.63;5037151;28;70309;-40
2024/01/16 10:01:21;;;;;;;19.98;12.57;;;;;;;32.01;69.17;100859.66;5046961;28;66174;-40
2024/01/16 10:03:52;;;;;;;23.70;12.98;;;;;;;32.01;69.88;100865.94;5062130;28;69859;-41
2024/01/16 10:06:24;;;;;;;18.77;13.15;;;;;;;32.05;70.12;100877.16;5064085;28;66167;-43
2024/01/16 10:08:55;;;;;;;26.95;12.32;;;;;;;32.00;69.73;100866.97;5037443;28;70132;-40
2024/01/16 10:11:26;;;;;;;20.13;11.63;;;;;;;32.02;70.66;100877.63;5038368;28;66194;-41
2024/01/16 10:13:58;;;;;;;19.02;11.90;;;;;;;32.03;70.44;100882.78;5044466;28;70107;-41
2024/01/16 10:17:13;;;;;;;15.32;10.98;;;;;;;31.99;70.76;100875.34;5045685;28;65728;-39
2024/01/16 10:19:52;;;;;;;18.13;10.48;;;;;;;31.52;70.65;100808.06;5035975;28;70422;-41
2024/01/16 10:22:25;;;;;;;15.70;10.38;;;;;;;32.00;70.89;100887.84;5060912;28;66284;-41
2024/01/16 10:25:16;;;;;;;13.63;9.38;;;;;;;31.96;70.67;100892.91;5036549;28;69923;-42
2024/01/16 10:27:47;;;;;;;18.33;9.25;;;;;;;32.02;70.16;100894.72;5054367;28;65497;-42
2024/01/16 10:30:23;;;;;;;18.00;9.10;;;;;;;31.60;70.68;100821.34;5038547;28;69640;-42
2024/01/16 10:32:54;;;;;;;18.63;8.75;;;;;;;31.86;70.80;100873.59;5040931;28;65275;-41
2024/01/16 10:35:25;;;;;;;15.40;7.88;;;;;;;31.98;70.10;100893.53;5040738;28;70213;-40
2024/01/16 10:37:56;;;;;;;17.92;8.32;;;;;;;31.98;70.40;100900.81;5037419;28;66372;-42
2024/01/16 10:40:26;;;;;;;25.30;8.93;;;;;;;31.92;70.35;100894.41;5033803;28;69714;-41
2024/01/16 10:43:01;;;;;;;9.85;7.68;;;;;;;31.95;70.29;100904.81;5040514;28;66836;-42
2024/01/16 10:45:33;;;;;;;21.20;7.68;;;;;;;31.92;70.34;100905.25;5037364;28;69853;-41
2024/01/16 10:48:06;;;;;;;16.23;7.63;;;;;;;31.88;70.21;100909.47;5029125;28;66537;-44
2024/01/16 10:50:39;;;;;;;13.48;7.20;;;;;;;31.85;70.24;100904.50;5048970;28;70648;-43
2024/01/16 10:53:15;;;;;;;17.00;7.50;;;;;;;31.52;69.95;100856.06;5040743;28;66458;-42
2024/01/16 10:55:52;;;;;;;15.23;7.70;;;;;;;31.90;69.98;100926.34;5038274;28;70115;-41
2024/01/16 10:58:25;;;;;;;21.33;7.60;;;;;;;31.90;69.78;100923.63;5024981;28;66461;-42
2024/01/16 11:00:58;;;;;;;16.52;6.78;;;;;;;31.91;69.89;100941.59;5038338;28;70037;-41
2024/01/16 11:03:39;;;;;;;11.82;7.40;;;;;;;31.85;70.07;100945.19;5073807;28;66465;-41
2024/01/16 11:06:11;;;;;;;16.60;8.00;;;;;;;31.91;69.29;100941.59;5050846;28;70527;-42
2024/01/16 11:08:42;;;;;;;13.48;6.85;;;;;;;31.90;69.41;100937.22;5047644;28;66570;-41
2024/01/16 11:11:14;;;;;;;15.17;7.80;;;;;;;31.88;69.93;100942.03;5044477;28;69898;-41
2024/01/16 11:13:46;;;;;;;15.77;7.45;;;;;;;31.89;69.41;100954.53;5042380;28;66239;-43
2024/01/16 11:16:18;;;;;;;17.45;8.07;;;;;;;31.85;69.34;100933.50;5041462;28;70051;-42
2024/01/16 11:18:49;;;;;;;14.40;7.90;;;;;;;31.87;69.32;100950.38;5044550;28;66302;-44
2024/01/16 11:21:20;;;;;;;14.05;7.60;;;;;;;31.84;69.55;100951.66;5040763;28;70095;-42
2024/01/16 11:23:52;;;;;;;19.77;7.65;;;;;;;31.81;69.51;100946.69;5038281;28;64859;-41
2024/01/16 11:26:33;;;;;;;17.65;7.85;;;;;;;31.32;69.25;100872.50;5043033;28;69149;-42
2024/01/16 11:29:28;;;;;;;24.10;8.98;;;;;;;31.73;69.56;100949.69;5041229;28;66074;-42
2024/01/16 11:32:03;;;;;;;15.57;7.28;;;;;;;31.74;69.42;100946.75;5052759;28;70162;-42